sensor_id;sensor_type;location;lat;lon;timestamp;P1;durP1;ratioP1;P2;durP2;ratioP2
24381;SDS011;12502;50.678;7.172;2022-08-25T00:02:02;9.02;;;3.72;;
24381;SDS011;12502;50.678;7.172;2022-08-25T00:07:09;7.18;;;4.22;;
24381;SDS011;12502;50.678;7.172;2022-08-25T00:12:11;7.57;;;3.70;;
24381;SDS011;12502;50.678;7.172;2022-08-25T00:17:13;6.38;;;4.00;;
24381;SDS011;12502;50.678;7.172;2022-08-25T00:22:16;5.70;;;4.22;;
24381;SDS011;12502;50.678;7.172;2022-08-25T00:27:17;8.05;;;4.32;;
24381;SDS011;12502;50.678;7.172;2022-08-25T00:32:19;6.50;;;4.07;;
24381;SDS011;12502;50.678;7.172;2022-08-25T00:37:22;6.32;;;4.20;;
24381;SDS011;12502;50.678;7.172;2022-08-25T00:42:24;7.05;;;4.32;;
24381;SDS011;12502;50.678;7.172;2022-08-25T00:47:27;7.45;;;4.10;;
24381;SDS011;12502;50.678;7.172;2022-08-25T00:52:31;6.10;;;3.92;;
24381;SDS011;12502;50.678;7.172;2022-08-25T00:57:42;8.38;;;4.60;;
24381;SDS011;12502;50.678;7.172;2022-08-25T01:03:17;5.35;;;4.07;;
24381;SDS011;12502;50.678;7.172;2022-08-25T01:08:20;7.93;;;4.55;;
24381;SDS011;12502;50.678;7.172;2022-08-25T01:13:31;6.32;;;4.32;;
24381;SDS011;12502;50.678;7.172;2022-08-25T01:18:44;6.78;;;4.18;;
24381;SDS011;12502;50.678;7.172;2022-08-25T01:23:51;7.88;;;4.55;;
24381;SDS011;12502;50.678;7.172;2022-08-25T01:28:55;6.78;;;3.80;;
24381;SDS011;12502;50.678;7.172;2022-08-25T01:34:17;7.65;;;4.38;;
24381;SDS011;12502;50.678;7.172;2022-08-25T01:39:20;7.47;;;4.30;;
24381;SDS011;12502;50.678;7.172;2022-08-25T01:44:22;5.15;;;3.72;;
24381;SDS011;12502;50.678;7.172;2022-08-25T01:49:25;6.55;;;3.92;;
24381;SDS011;12502;50.678;7.172;2022-08-25T01:54:26;6.70;;;4.07;;
24381;SDS011;12502;50.678;7.172;2022-08-25T01:59:28;5.85;;;4.18;;
24381;SDS011;12502;50.678;7.172;2022-08-25T02:04:30;5.65;;;4.20;;
24381;SDS011;12502;50.678;7.172;2022-08-25T02:09:35;9.63;;;4.80;;
24381;SDS011;12502;50.678;7.172;2022-08-25T02:14:37;6.57;;;4.25;;
24381;SDS011;12502;50.678;7.172;2022-08-25T02:19:41;11.30;;;4.30;;
24381;SDS011;12502;50.678;7.172;2022-08-25T02:24:43;6.20;;;3.85;;
24381;SDS011;12502;50.678;7.172;2022-08-25T02:29:45;7.85;;;3.92;;
24381;SDS011;12502;50.678;7.172;2022-08-25T02:34:47;7.57;;;4.10;;
24381;SDS011;12502;50.678;7.172;2022-08-25T02:39:49;6.40;;;4.50;;
24381;SDS011;12502;50.678;7.172;2022-08-25T02:44:51;7.82;;;4.38;;
24381;SDS011;12502;50.678;7.172;2022-08-25T02:49:54;4.68;;;3.92;;
24381;SDS011;12502;50.678;7.172;2022-08-25T02:54:55;7.13;;;4.18;;
24381;SDS011;12502;50.678;7.172;2022-08-25T02:59:58;6.38;;;4.32;;
24381;SDS011;12502;50.678;7.172;2022-08-25T03:05:00;5.53;;;4.00;;
24381;SDS011;12502;50.678;7.172;2022-08-25T03:10:09;7.18;;;4.13;;
24381;SDS011;12502;50.678;7.172;2022-08-25T03:15:15;5.43;;;4.30;;
24381;SDS011;12502;50.678;7.172;2022-08-25T03:20:18;7.00;;;4.32;;
24381;SDS011;12502;50.678;7.172;2022-08-25T03:25:20;6.90;;;4.38;;
24381;SDS011;12502;50.678;7.172;2022-08-25T03:30:41;5.88;;;4.22;;
24381;SDS011;12502;50.678;7.172;2022-08-25T03:35:43;5.82;;;4.00;;
24381;SDS011;12502;50.678;7.172;2022-08-25T03:40:44;5.65;;;4.45;;
24381;SDS011;12502;50.678;7.172;2022-08-25T03:45:46;8.88;;;4.30;;
24381;SDS011;12502;50.678;7.172;2022-08-25T03:50:49;4.80;;;4.30;;
24381;SDS011;12502;50.678;7.172;2022-08-25T03:55:52;6.60;;;4.55;;
24381;SDS011;12502;50.678;7.172;2022-08-25T04:00:55;6.10;;;4.65;;
24381;SDS011;12502;50.678;7.172;2022-08-25T04:06:03;6.32;;;4.60;;
24381;SDS011;12502;50.678;7.172;2022-08-25T04:11:10;5.97;;;4.32;;
24381;SDS011;12502;50.678;7.172;2022-08-25T04:16:18;5.28;;;3.75;;
24381;SDS011;12502;50.678;7.172;2022-08-25T04:21:23;7.15;;;4.53;;
24381;SDS011;12502;50.678;7.172;2022-08-25T04:26:31;6.70;;;5.00;;
24381;SDS011;12502;50.678;7.172;2022-08-25T04:31:38;8.25;;;4.30;;
24381;SDS011;12502;50.678;7.172;2022-08-25T04:36:41;5.95;;;4.43;;
24381;SDS011;12502;50.678;7.172;2022-08-25T04:41:43;6.70;;;4.07;;
24381;SDS011;12502;50.678;7.172;2022-08-25T04:46:45;7.68;;;4.53;;
24381;SDS011;12502;50.678;7.172;2022-08-25T04:51:47;9.85;;;5.00;;
24381;SDS011;12502;50.678;7.172;2022-08-25T04:56:49;7.50;;;4.88;;
24381;SDS011;12502;50.678;7.172;2022-08-25T05:01:59;7.43;;;4.78;;
24381;SDS011;12502;50.678;7.172;2022-08-25T05:07:05;4.32;;;3.92;;
24381;SDS011;12502;50.678;7.172;2022-08-25T05:12:07;6.80;;;4.45;;
24381;SDS011;12502;50.678;7.172;2022-08-25T05:22:14;6.68;;;4.22;;
24381;SDS011;12502;50.678;7.172;2022-08-25T05:27:15;9.80;;;5.20;;
24381;SDS011;12502;50.678;7.172;2022-08-25T05:32:17;16.35;;;4.68;;
24381;SDS011;12502;50.678;7.172;2022-08-25T05:37:19;11.15;;;4.20;;
24381;SDS011;12502;50.678;7.172;2022-08-25T05:42:23;10.52;;;4.53;;
24381;SDS011;12502;50.678;7.172;2022-08-25T05:47:25;5.88;;;4.18;;
24381;SDS011;12502;50.678;7.172;2022-08-25T05:52:27;13.13;;;4.90;;
24381;SDS011;12502;50.678;7.172;2022-08-25T05:57:30;6.28;;;3.80;;
24381;SDS011;12502;50.678;7.172;2022-08-25T06:02:34;11.30;;;4.38;;
24381;SDS011;12502;50.678;7.172;2022-08-25T06:07:49;9.63;;;4.35;;
24381;SDS011;12502;50.678;7.172;2022-08-25T06:12:52;6.57;;;4.60;;
24381;SDS011;12502;50.678;7.172;2022-08-25T06:17:57;10.40;;;4.90;;
24381;SDS011;12502;50.678;7.172;2022-08-25T06:23:03;9.65;;;4.60;;
24381;SDS011;12502;50.678;7.172;2022-08-25T06:28:04;6.78;;;4.15;;
24381;SDS011;12502;50.678;7.172;2022-08-25T06:33:06;8.27;;;4.18;;
24381;SDS011;12502;50.678;7.172;2022-08-25T06:38:09;7.15;;;4.05;;
24381;SDS011;12502;50.678;7.172;2022-08-25T06:43:11;7.38;;;3.95;;
24381;SDS011;12502;50.678;7.172;2022-08-25T06:48:14;9.27;;;4.38;;
24381;SDS011;12502;50.678;7.172;2022-08-25T06:53:16;8.05;;;4.38;;
24381;SDS011;12502;50.678;7.172;2022-08-25T06:58:17;10.15;;;3.90;;
24381;SDS011;12502;50.678;7.172;2022-08-25T07:03:19;6.35;;;3.70;;
24381;SDS011;12502;50.678;7.172;2022-08-25T07:08:24;8.80;;;3.72;;
24381;SDS011;12502;50.678;7.172;2022-08-25T07:13:26;7.53;;;4.53;;
24381;SDS011;12502;50.678;7.172;2022-08-25T07:18:30;7.72;;;3.90;;
24381;SDS011;12502;50.678;7.172;2022-08-25T07:23:32;8.55;;;4.32;;
24381;SDS011;12502;50.678;7.172;2022-08-25T07:28:34;4.95;;;4.00;;
24381;SDS011;12502;50.678;7.172;2022-08-25T07:33:36;6.60;;;4.10;;
24381;SDS011;12502;50.678;7.172;2022-08-25T07:38:39;11.30;;;4.55;;
24381;SDS011;12502;50.678;7.172;2022-08-25T07:43:40;7.45;;;4.30;;
24381;SDS011;12502;50.678;7.172;2022-08-25T07:48:43;9.93;;;4.57;;
24381;SDS011;12502;50.678;7.172;2022-08-25T07:53:53;8.18;;;4.63;;
24381;SDS011;12502;50.678;7.172;2022-08-25T07:58:55;7.68;;;4.38;;
24381;SDS011;12502;50.678;7.172;2022-08-25T08:03:57;9.90;;;4.80;;
24381;SDS011;12502;50.678;7.172;2022-08-25T08:09:03;13.95;;;5.20;;
24381;SDS011;12502;50.678;7.172;2022-08-25T08:14:06;12.35;;;5.40;;
24381;SDS011;12502;50.678;7.172;2022-08-25T08:19:08;9.15;;;4.72;;
24381;SDS011;12502;50.678;7.172;2022-08-25T08:24:10;8.15;;;4.75;;
24381;SDS011;12502;50.678;7.172;2022-08-25T08:29:32;13.20;;;4.93;;
24381;SDS011;12502;50.678;7.172;2022-08-25T08:34:35;9.13;;;4.90;;
24381;SDS011;12502;50.678;7.172;2022-08-25T08:39:38;6.82;;;4.75;;
24381;SDS011;12502;50.678;7.172;2022-08-25T09:00:46;5.78;;;4.13;;
24381;SDS011;12502;50.678;7.172;2022-08-25T09:05:53;5.40;;;4.40;;
24381;SDS011;12502;50.678;7.172;2022-08-25T09:11:22;4.75;;;3.97;;
24381;SDS011;12502;50.678;7.172;2022-08-25T09:33:24;10.07;;;5.25;;
24381;SDS011;12502;50.678;7.172;2022-08-25T09:38:27;6.67;;;4.80;;
24381;SDS011;12502;50.678;7.172;2022-08-25T09:43:33;5.72;;;5.10;;
24381;SDS011;12502;50.678;7.172;2022-08-25T10:04:36;8.65;;;4.72;;
24381;SDS011;12502;50.678;7.172;2022-08-25T10:09:41;5.13;;;4.63;;
24381;SDS011;12502;50.678;7.172;2022-08-25T10:14:43;7.15;;;4.55;;
24381;SDS011;12502;50.678;7.172;2022-08-25T10:19:48;7.57;;;4.72;;
24381;SDS011;12502;50.678;7.172;2022-08-25T10:24:51;5.68;;;5.07;;
24381;SDS011;12502;50.678;7.172;2022-08-25T10:35:06;5.60;;;5.05;;
24381;SDS011;12502;50.678;7.172;2022-08-25T10:40:31;5.40;;;4.90;;
24381;SDS011;12502;50.678;7.172;2022-08-25T10:45:48;6.43;;;4.47;;
24381;SDS011;12502;50.678;7.172;2022-08-25T10:56:36;6.22;;;4.60;;
24381;SDS011;12502;50.678;7.172;2022-08-25T11:01:52;5.00;;;4.50;;
24381;SDS011;12502;50.678;7.172;2022-08-25T11:07:19;7.07;;;4.30;;
24381;SDS011;12502;50.678;7.172;2022-08-25T11:12:32;17.52;;;4.65;;
24381;SDS011;12502;50.678;7.172;2022-08-25T11:17:43;6.18;;;4.68;;
24381;SDS011;12502;50.678;7.172;2022-08-25T11:22:56;7.35;;;4.72;;
24381;SDS011;12502;50.678;7.172;2022-08-25T11:28:10;6.15;;;4.00;;
24381;SDS011;12502;50.678;7.172;2022-08-25T11:33:16;4.78;;;4.10;;
24381;SDS011;12502;50.678;7.172;2022-08-25T11:49:14;9.13;;;5.80;;
24381;SDS011;12502;50.678;7.172;2022-08-25T11:59:59;4.43;;;4.03;;
24381;SDS011;12502;50.678;7.172;2022-08-25T12:05:51;10.82;;;4.25;;
24381;SDS011;12502;50.678;7.172;2022-08-25T12:15:56;4.18;;;3.78;;
24381;SDS011;12502;50.678;7.172;2022-08-25T12:31:21;4.88;;;4.38;;
24381;SDS011;12502;50.678;7.172;2022-08-25T12:36:53;4.90;;;4.00;;
24381;SDS011;12502;50.678;7.172;2022-08-25T12:41:59;4.32;;;3.92;;
24381;SDS011;12502;50.678;7.172;2022-08-25T12:47:25;7.13;;;4.13;;
24381;SDS011;12502;50.678;7.172;2022-08-25T12:52:28;6.15;;;4.50;;
24381;SDS011;12502;50.678;7.172;2022-08-25T12:57:39;5.57;;;3.55;;
24381;SDS011;12502;50.678;7.172;2022-08-25T13:18:44;4.15;;;3.17;;
24381;SDS011;12502;50.678;7.172;2022-08-25T13:23:52;4.32;;;3.70;;
24381;SDS011;12502;50.678;7.172;2022-08-25T13:34:21;3.85;;;3.00;;
24381;SDS011;12502;50.678;7.172;2022-08-25T13:39:35;5.43;;;3.60;;
24381;SDS011;12502;50.678;7.172;2022-08-25T13:44:56;3.25;;;3.05;;
24381;SDS011;12502;50.678;7.172;2022-08-25T13:50:16;7.15;;;3.28;;
24381;SDS011;12502;50.678;7.172;2022-08-25T13:55:24;11.33;;;2.93;;
24381;SDS011;12502;50.678;7.172;2022-08-25T14:01:14;5.32;;;3.35;;
24381;SDS011;12502;50.678;7.172;2022-08-25T14:06:43;4.95;;;3.10;;
24381;SDS011;12502;50.678;7.172;2022-08-25T14:11:55;3.30;;;3.00;;
24381;SDS011;12502;50.678;7.172;2022-08-25T14:16:59;5.35;;;3.08;;
24381;SDS011;12502;50.678;7.172;2022-08-25T14:22:16;4.90;;;2.70;;
24381;SDS011;12502;50.678;7.172;2022-08-25T14:27:18;4.35;;;3.10;;
24381;SDS011;12502;50.678;7.172;2022-08-25T14:32:20;5.38;;;3.00;;
24381;SDS011;12502;50.678;7.172;2022-08-25T14:37:22;3.70;;;2.80;;
24381;SDS011;12502;50.678;7.172;2022-08-25T14:42:26;10.90;;;3.97;;
24381;SDS011;12502;50.678;7.172;2022-08-25T14:47:28;2.83;;;2.63;;
24381;SDS011;12502;50.678;7.172;2022-08-25T14:52:32;6.05;;;3.03;;
24381;SDS011;12502;50.678;7.172;2022-08-25T14:57:34;5.18;;;3.00;;
24381;SDS011;12502;50.678;7.172;2022-08-25T15:02:36;3.58;;;2.80;;
24381;SDS011;12502;50.678;7.172;2022-08-25T15:07:41;2.88;;;2.65;;
24381;SDS011;12502;50.678;7.172;2022-08-25T15:13:02;5.72;;;3.00;;
24381;SDS011;12502;50.678;7.172;2022-08-25T15:18:06;3.33;;;2.58;;
24381;SDS011;12502;50.678;7.172;2022-08-25T15:23:10;3.90;;;2.95;;
24381;SDS011;12502;50.678;7.172;2022-08-25T15:28:12;4.43;;;2.60;;
24381;SDS011;12502;50.678;7.172;2022-08-25T15:33:17;4.22;;;3.00;;
24381;SDS011;12502;50.678;7.172;2022-08-25T15:38:20;4.07;;;2.80;;
24381;SDS011;12502;50.678;7.172;2022-08-25T15:43:21;6.43;;;3.03;;
24381;SDS011;12502;50.678;7.172;2022-08-25T15:48:26;4.05;;;3.33;;
24381;SDS011;12502;50.678;7.172;2022-08-25T15:53:27;8.20;;;3.33;;
24381;SDS011;12502;50.678;7.172;2022-08-25T15:58:30;3.70;;;3.03;;
24381;SDS011;12502;50.678;7.172;2022-08-25T16:03:33;6.37;;;3.87;;
24381;SDS011;12502;50.678;7.172;2022-08-25T16:08:35;4.07;;;3.55;;
24381;SDS011;12502;50.678;7.172;2022-08-25T16:19:37;5.05;;;3.88;;
24381;SDS011;12502;50.678;7.172;2022-08-25T16:24:40;6.57;;;3.65;;
24381;SDS011;12502;50.678;7.172;2022-08-25T16:29:44;4.53;;;4.07;;
24381;SDS011;12502;50.678;7.172;2022-08-25T16:34:47;5.47;;;3.72;;
24381;SDS011;12502;50.678;7.172;2022-08-25T16:39:52;5.53;;;4.13;;
24381;SDS011;12502;50.678;7.172;2022-08-25T16:44:55;7.38;;;3.88;;
24381;SDS011;12502;50.678;7.172;2022-08-25T16:49:57;6.05;;;4.18;;
24381;SDS011;12502;50.678;7.172;2022-08-25T16:55:00;5.47;;;4.23;;
24381;SDS011;12502;50.678;7.172;2022-08-25T17:00:17;4.97;;;4.40;;
24381;SDS011;12502;50.678;7.172;2022-08-25T17:05:22;6.25;;;4.18;;
24381;SDS011;12502;50.678;7.172;2022-08-25T17:10:23;5.57;;;4.13;;
24381;SDS011;12502;50.678;7.172;2022-08-25T17:15:25;6.07;;;4.30;;
24381;SDS011;12502;50.678;7.172;2022-08-25T17:20:27;6.10;;;4.22;;
24381;SDS011;12502;50.678;7.172;2022-08-25T17:25:32;5.22;;;4.40;;
24381;SDS011;12502;50.678;7.172;2022-08-25T17:30:43;6.07;;;4.43;;
24381;SDS011;12502;50.678;7.172;2022-08-25T17:35:46;6.00;;;4.20;;
24381;SDS011;12502;50.678;7.172;2022-08-25T17:40:50;6.40;;;4.40;;
24381;SDS011;12502;50.678;7.172;2022-08-25T17:45:54;5.13;;;3.90;;
24381;SDS011;12502;50.678;7.172;2022-08-25T17:50:57;6.05;;;4.63;;
24381;SDS011;12502;50.678;7.172;2022-08-25T17:56:01;5.00;;;4.27;;
24381;SDS011;12502;50.678;7.172;2022-08-25T18:01:05;7.25;;;4.28;;
24381;SDS011;12502;50.678;7.172;2022-08-25T18:06:07;6.38;;;4.53;;
24381;SDS011;12502;50.678;7.172;2022-08-25T18:11:15;5.38;;;4.80;;
24381;SDS011;12502;50.678;7.172;2022-08-25T18:16:18;5.55;;;4.50;;
24381;SDS011;12502;50.678;7.172;2022-08-25T18:21:20;5.90;;;4.43;;
24381;SDS011;12502;50.678;7.172;2022-08-25T18:26:22;5.85;;;5.25;;
24381;SDS011;12502;50.678;7.172;2022-08-25T18:31:26;5.25;;;4.75;;
24381;SDS011;12502;50.678;7.172;2022-08-25T18:36:28;6.05;;;4.50;;
24381;SDS011;12502;50.678;7.172;2022-08-25T18:41:35;5.32;;;4.57;;
24381;SDS011;12502;50.678;7.172;2022-08-25T18:46:40;7.07;;;4.95;;
24381;SDS011;12502;50.678;7.172;2022-08-25T18:51:43;8.85;;;5.13;;
24381;SDS011;12502;50.678;7.172;2022-08-25T18:56:45;9.68;;;5.55;;
24381;SDS011;12502;50.678;7.172;2022-08-25T19:01:47;8.30;;;5.47;;
24381;SDS011;12502;50.678;7.172;2022-08-25T19:06:50;8.30;;;5.30;;
24381;SDS011;12502;50.678;7.172;2022-08-25T19:11:52;12.43;;;6.32;;
24381;SDS011;12502;50.678;7.172;2022-08-25T19:16:55;11.25;;;5.80;;
24381;SDS011;12502;50.678;7.172;2022-08-25T19:21:58;7.60;;;6.07;;
24381;SDS011;12502;50.678;7.172;2022-08-25T19:26:59;7.25;;;5.50;;
24381;SDS011;12502;50.678;7.172;2022-08-25T19:32:05;10.80;;;5.57;;
24381;SDS011;12502;50.678;7.172;2022-08-25T19:37:08;8.73;;;5.93;;
24381;SDS011;12502;50.678;7.172;2022-08-25T19:42:12;10.77;;;5.32;;
24381;SDS011;12502;50.678;7.172;2022-08-25T19:47:35;8.88;;;5.97;;
24381;SDS011;12502;50.678;7.172;2022-08-25T19:52:38;8.05;;;5.85;;
24381;SDS011;12502;50.678;7.172;2022-08-25T19:57:42;8.75;;;6.60;;
24381;SDS011;12502;50.678;7.172;2022-08-25T20:02:44;14.25;;;7.15;;
24381;SDS011;12502;50.678;7.172;2022-08-25T20:07:48;12.77;;;8.80;;
24381;SDS011;12502;50.678;7.172;2022-08-25T20:12:52;13.10;;;8.40;;
24381;SDS011;12502;50.678;7.172;2022-08-25T20:17:54;10.20;;;7.53;;
24381;SDS011;12502;50.678;7.172;2022-08-25T20:22:57;9.43;;;7.20;;
24381;SDS011;12502;50.678;7.172;2022-08-25T20:28:18;9.95;;;7.72;;
24381;SDS011;12502;50.678;7.172;2022-08-25T20:33:20;8.82;;;7.00;;
24381;SDS011;12502;50.678;7.172;2022-08-25T20:38:23;11.57;;;7.25;;
24381;SDS011;12502;50.678;7.172;2022-08-25T20:43:27;10.40;;;6.85;;
24381;SDS011;12502;50.678;7.172;2022-08-25T20:48:29;12.18;;;7.35;;
24381;SDS011;12502;50.678;7.172;2022-08-25T20:53:33;10.82;;;7.60;;
24381;SDS011;12502;50.678;7.172;2022-08-25T20:58:36;9.30;;;7.43;;
24381;SDS011;12502;50.678;7.172;2022-08-25T21:08:43;9.35;;;7.25;;
24381;SDS011;12502;50.678;7.172;2022-08-25T21:13:48;10.43;;;7.78;;
24381;SDS011;12502;50.678;7.172;2022-08-25T21:18:50;9.98;;;7.18;;
24381;SDS011;12502;50.678;7.172;2022-08-25T21:23:52;9.98;;;7.15;;
24381;SDS011;12502;50.678;7.172;2022-08-25T21:28:57;10.00;;;6.95;;
24381;SDS011;12502;50.678;7.172;2022-08-25T21:34:01;7.80;;;6.47;;
24381;SDS011;12502;50.678;7.172;2022-08-25T21:39:04;8.85;;;6.63;;
24381;SDS011;12502;50.678;7.172;2022-08-25T21:44:06;11.07;;;7.20;;
24381;SDS011;12502;50.678;7.172;2022-08-25T21:49:08;12.02;;;6.90;;
24381;SDS011;12502;50.678;7.172;2022-08-25T21:54:11;12.32;;;7.03;;
24381;SDS011;12502;50.678;7.172;2022-08-25T21:59:17;10.82;;;7.32;;
24381;SDS011;12502;50.678;7.172;2022-08-25T22:04:22;16.52;;;7.45;;
24381;SDS011;12502;50.678;7.172;2022-08-25T22:09:24;8.80;;;6.88;;
24381;SDS011;12502;50.678;7.172;2022-08-25T22:14:28;8.52;;;6.75;;
24381;SDS011;12502;50.678;7.172;2022-08-25T22:19:30;8.45;;;6.53;;
24381;SDS011;12502;50.678;7.172;2022-08-25T22:24:33;7.97;;;7.15;;
24381;SDS011;12502;50.678;7.172;2022-08-25T22:29:35;11.45;;;7.00;;
24381;SDS011;12502;50.678;7.172;2022-08-25T22:34:37;10.40;;;7.00;;
24381;SDS011;12502;50.678;7.172;2022-08-25T22:39:40;7.28;;;6.57;;
24381;SDS011;12502;50.678;7.172;2022-08-25T22:44:42;10.07;;;7.30;;
24381;SDS011;12502;50.678;7.172;2022-08-25T22:49:44;8.57;;;7.07;;
24381;SDS011;12502;50.678;7.172;2022-08-25T22:54:50;7.47;;;6.32;;
24381;SDS011;12502;50.678;7.172;2022-08-25T22:59:53;10.63;;;7.35;;
24381;SDS011;12502;50.678;7.172;2022-08-25T23:04:56;12.95;;;7.30;;
24381;SDS011;12502;50.678;7.172;2022-08-25T23:10:02;11.15;;;7.43;;
24381;SDS011;12502;50.678;7.172;2022-08-25T23:15:07;9.38;;;7.25;;
24381;SDS011;12502;50.678;7.172;2022-08-25T23:20:10;9.00;;;6.85;;
24381;SDS011;12502;50.678;7.172;2022-08-25T23:25:30;7.88;;;7.07;;
24381;SDS011;12502;50.678;7.172;2022-08-25T23:30:32;7.55;;;6.78;;
24381;SDS011;12502;50.678;7.172;2022-08-25T23:35:34;12.13;;;7.20;;
24381;SDS011;12502;50.678;7.172;2022-08-25T23:40:40;10.75;;;7.10;;
24381;SDS011;12502;50.678;7.172;2022-08-25T23:45:43;19.00;;;7.72;;
24381;SDS011;12502;50.678;7.172;2022-08-25T23:50:46;9.10;;;7.57;;
24381;SDS011;12502;50.678;7.172;2022-08-25T23:55:54;9.82;;;7.30;;
